sensor_id;sensor_type;location;lat;lon;timestamp;pressure;altitude;pressure_sealevel;temperature;humidity
63691;BME280;49837;57.280;27.070;2022-10-15T00:00:53;100396.47;;;6.32;91.85
63691;BME280;49837;57.280;27.070;2022-10-15T00:01:53;100393.61;;;6.3;91.97
63691;BME280;49837;57.280;27.070;2022-10-15T00:02:54;100394.11;;;6.27;92.23
63691;BME280;49837;57.280;27.070;2022-10-15T00:03:54;100397.09;;;6.29;92.3
63691;BME280;49837;57.280;27.070;2022-10-15T00:04:55;100396.16;;;6.3;92.16
63691;BME280;49837;57.280;27.070;2022-10-15T00:05:55;100395.83;;;6.29;92.22
63691;BME280;49837;57.280;27.070;2022-10-15T00:06:55;100398.99;;;6.29;92.35
63691;BME280;49837;57.280;27.070;2022-10-15T00:07:56;100398.5;;;6.29;92.19
63691;BME280;49837;57.280;27.070;2022-10-15T00:08:56;100396.74;;;6.32;92.08
63691;BME280;49837;57.280;27.070;2022-10-15T00:09:56;100394.33;;;6.33;91.93
63691;BME280;49837;57.280;27.070;2022-10-15T00:11:02;100397.78;;;6.35;91.83
63691;BME280;49837;57.280;27.070;2022-10-15T00:12:00;100394.98;;;6.33;91.95
63691;BME280;49837;57.280;27.070;2022-10-15T00:13:00;100394.67;;;6.31;92.17
63691;BME280;49837;57.280;27.070;2022-10-15T00:14:00;100399.56;;;6.29;92.19
63691;BME280;49837;57.280;27.070;2022-10-15T00:15:01;100390.94;;;6.22;92.0
63691;BME280;49837;57.280;27.070;2022-10-15T00:16:02;100392.41;;;6.24;91.71
63691;BME280;49837;57.280;27.070;2022-10-15T00:17:01;100391.0;;;6.24;92.03
63691;BME280;49837;57.280;27.070;2022-10-15T00:18:02;100388.91;;;6.28;91.76
63691;BME280;49837;57.280;27.070;2022-10-15T00:19:02;100391.23;;;6.26;91.84
63691;BME280;49837;57.280;27.070;2022-10-15T00:20:05;100385.38;;;6.23;91.88
63691;BME280;49837;57.280;27.070;2022-10-15T00:22:08;100385.84;;;6.18;91.9
63691;BME280;49837;57.280;27.070;2022-10-15T00:23:08;100384.52;;;6.17;91.94
63691;BME280;49837;57.280;27.070;2022-10-15T00:24:08;100388.12;;;6.22;91.94
63691;BME280;49837;57.280;27.070;2022-10-15T00:25:09;100388.27;;;6.23;91.89
63691;BME280;49837;57.280;27.070;2022-10-15T00:26:13;100390.59;;;6.23;92.05
63691;BME280;49837;57.280;27.070;2022-10-15T00:27:11;100389.51;;;6.23;91.81
63691;BME280;49837;57.280;27.070;2022-10-15T00:28:12;100384.95;;;6.25;91.88
63691;BME280;49837;57.280;27.070;2022-10-15T00:29:12;100386.78;;;6.25;91.95
63691;BME280;49837;57.280;27.070;2022-10-15T00:30:13;100384.88;;;6.24;92.07
63691;BME280;49837;57.280;27.070;2022-10-15T00:31:15;100388.85;;;6.24;92.14
63691;BME280;49837;57.280;27.070;2022-10-15T00:32:14;100387.94;;;6.23;92.04
63691;BME280;49837;57.280;27.070;2022-10-15T00:33:14;100388.1;;;6.24;91.88
63691;BME280;49837;57.280;27.070;2022-10-15T00:34:14;100388.48;;;6.26;91.86
63691;BME280;49837;57.280;27.070;2022-10-15T00:35:15;100385.67;;;6.29;91.61
63691;BME280;49837;57.280;27.070;2022-10-15T00:36:18;100386.98;;;6.31;91.65
63691;BME280;49837;57.280;27.070;2022-10-15T00:37:16;100387.97;;;6.29;91.62
63691;BME280;49837;57.280;27.070;2022-10-15T00:38:16;100385.02;;;6.25;91.67
63691;BME280;49837;57.280;27.070;2022-10-15T00:39:17;100382.7;;;6.27;91.68
63691;BME280;49837;57.280;27.070;2022-10-15T00:40:17;100382.42;;;6.3;91.83
63691;BME280;49837;57.280;27.070;2022-10-15T00:41:20;100388.14;;;6.31;91.66
63691;BME280;49837;57.280;27.070;2022-10-15T00:42:18;100383.99;;;6.29;91.82
63691;BME280;49837;57.280;27.070;2022-10-15T00:45:22;100382.58;;;6.31;91.83
63691;BME280;49837;57.280;27.070;2022-10-15T00:46:31;100380.84;;;6.32;91.77
63691;BME280;49837;57.280;27.070;2022-10-15T00:48:27;100381.88;;;6.35;91.4
63691;BME280;49837;57.280;27.070;2022-10-15T00:49:35;100384.42;;;6.39;91.34
63691;BME280;49837;57.280;27.070;2022-10-15T00:50:29;100382.16;;;6.41;91.16
63691;BME280;49837;57.280;27.070;2022-10-15T00:51:34;100379.15;;;6.44;90.91
63691;BME280;49837;57.280;27.070;2022-10-15T00:53:35;100380.2;;;6.45;91.1
63691;BME280;49837;57.280;27.070;2022-10-15T00:55:41;100382.35;;;6.54;90.62
63691;BME280;49837;57.280;27.070;2022-10-15T00:56:41;100380.51;;;6.56;90.38
63691;BME280;49837;57.280;27.070;2022-10-15T00:57:40;100380.98;;;6.49;90.62
63691;BME280;49837;57.280;27.070;2022-10-15T00:58:40;100383.73;;;6.5;91.03
63691;BME280;49837;57.280;27.070;2022-10-15T00:59:49;100382.86;;;6.54;90.98
63691;BME280;49837;57.280;27.070;2022-10-15T01:00:43;100386.42;;;6.55;90.7
63691;BME280;49837;57.280;27.070;2022-10-15T01:01:44;100385.65;;;6.57;90.6
63691;BME280;49837;57.280;27.070;2022-10-15T01:02:44;100383.08;;;6.58;90.44
63691;BME280;49837;57.280;27.070;2022-10-15T01:03:45;100383.89;;;6.6;90.21
63691;BME280;49837;57.280;27.070;2022-10-15T01:04:46;100383.41;;;6.64;90.27
63691;BME280;49837;57.280;27.070;2022-10-15T01:05:48;100384.58;;;6.64;90.23
63691;BME280;49837;57.280;27.070;2022-10-15T01:06:46;100380.84;;;6.63;90.39
63691;BME280;49837;57.280;27.070;2022-10-15T01:07:46;100382.62;;;6.61;90.23
63691;BME280;49837;57.280;27.070;2022-10-15T01:08:47;100382.46;;;6.61;90.25
63691;BME280;49837;57.280;27.070;2022-10-15T01:09:47;100381.8;;;6.6;90.21
63691;BME280;49837;57.280;27.070;2022-10-15T01:11:54;100383.16;;;6.58;90.23
63691;BME280;49837;57.280;27.070;2022-10-15T01:16:22;100380.58;;;6.59;90.46
63691;BME280;49837;57.280;27.070;2022-10-15T01:21:46;100379.56;;;6.61;90.28
63691;BME280;49837;57.280;27.070;2022-10-15T01:27:42;100381.5;;;6.64;89.6
63691;BME280;49837;57.280;27.070;2022-10-15T01:30:47;100379.73;;;6.62;89.57
63691;BME280;49837;57.280;27.070;2022-10-15T01:34:00;100381.08;;;6.6;89.37
63691;BME280;49837;57.280;27.070;2022-10-15T01:41:12;100376.95;;;6.5;89.93
63691;BME280;49837;57.280;27.070;2022-10-15T01:42:15;100378.73;;;6.44;90.27
63691;BME280;49837;57.280;27.070;2022-10-15T01:43:12;100379.5;;;6.4;90.4
63691;BME280;49837;57.280;27.070;2022-10-15T01:44:21;100377.52;;;6.39;90.32
63691;BME280;49837;57.280;27.070;2022-10-15T01:45:20;100372.28;;;6.41;90.27
63691;BME280;49837;57.280;27.070;2022-10-15T01:47:40;100373.11;;;6.41;90.27
63691;BME280;49837;57.280;27.070;2022-10-15T01:48:26;100371.33;;;6.4;90.26
63691;BME280;49837;57.280;27.070;2022-10-15T01:49:29;100370.51;;;6.39;89.98
63691;BME280;49837;57.280;27.070;2022-10-15T01:50:30;100374.5;;;6.34;90.14
63691;BME280;49837;57.280;27.070;2022-10-15T01:51:29;100371.22;;;6.31;90.36
63691;BME280;49837;57.280;27.070;2022-10-15T01:52:32;100370.39;;;6.31;90.35
63691;BME280;49837;57.280;27.070;2022-10-15T01:53:32;100371.84;;;6.27;90.52
63691;BME280;49837;57.280;27.070;2022-10-15T01:54:32;100369.4;;;6.22;90.55
63691;BME280;49837;57.280;27.070;2022-10-15T01:55:33;100369.41;;;6.2;90.79
63691;BME280;49837;57.280;27.070;2022-10-15T01:56:34;100368.34;;;6.2;91.07
63691;BME280;49837;57.280;27.070;2022-10-15T01:57:33;100368.84;;;6.2;90.85
63691;BME280;49837;57.280;27.070;2022-10-15T01:58:37;100368.02;;;6.19;91.01
63691;BME280;49837;57.280;27.070;2022-10-15T01:59:36;100363.99;;;6.16;90.87
63691;BME280;49837;57.280;27.070;2022-10-15T02:00:38;100364.5;;;6.13;90.85
63691;BME280;49837;57.280;27.070;2022-10-15T02:01:41;100359.82;;;6.1;90.88
63691;BME280;49837;57.280;27.070;2022-10-15T02:02:39;100363.64;;;6.09;91.26
63691;BME280;49837;57.280;27.070;2022-10-15T02:03:52;100359.34;;;6.07;90.92
63691;BME280;49837;57.280;27.070;2022-10-15T02:04:39;100362.31;;;6.09;91.14
63691;BME280;49837;57.280;27.070;2022-10-15T02:05:45;100365.95;;;6.1;91.06
63691;BME280;49837;57.280;27.070;2022-10-15T02:06:43;100362.61;;;6.15;91.01
63691;BME280;49837;57.280;27.070;2022-10-15T02:11:06;100359.78;;;6.15;90.83
63691;BME280;49837;57.280;27.070;2022-10-15T02:14:18;100358.48;;;6.1;90.79
63691;BME280;49837;57.280;27.070;2022-10-15T02:15:17;100359.23;;;6.1;90.86
63691;BME280;49837;57.280;27.070;2022-10-15T02:17:35;100360.28;;;6.13;90.71
63691;BME280;49837;57.280;27.070;2022-10-15T02:19:42;100365.78;;;6.2;90.52
63691;BME280;49837;57.280;27.070;2022-10-15T02:24:38;100362.45;;;6.21;90.33
63691;BME280;49837;57.280;27.070;2022-10-15T02:25:38;100364.62;;;6.18;90.31
63691;BME280;49837;57.280;27.070;2022-10-15T02:26:38;100365.38;;;6.17;90.45
63691;BME280;49837;57.280;27.070;2022-10-15T02:27:39;100362.41;;;6.18;90.34
63691;BME280;49837;57.280;27.070;2022-10-15T02:28:41;100361.81;;;6.17;90.5
63691;BME280;49837;57.280;27.070;2022-10-15T02:29:41;100362.52;;;6.15;90.34
63691;BME280;49837;57.280;27.070;2022-10-15T02:30:43;100362.02;;;6.12;90.43
63691;BME280;49837;57.280;27.070;2022-10-15T02:31:43;100361.12;;;6.13;90.47
63691;BME280;49837;57.280;27.070;2022-10-15T02:32:44;100362.03;;;6.13;90.45
63691;BME280;49837;57.280;27.070;2022-10-15T02:33:43;100357.7;;;6.14;90.39
63691;BME280;49837;57.280;27.070;2022-10-15T02:34:45;100360.84;;;6.17;90.58
63691;BME280;49837;57.280;27.070;2022-10-15T02:35:45;100360.98;;;6.17;90.39
63691;BME280;49837;57.280;27.070;2022-10-15T02:36:45;100358.84;;;6.16;90.52
63691;BME280;49837;57.280;27.070;2022-10-15T02:37:47;100364.36;;;6.12;90.59
63691;BME280;49837;57.280;27.070;2022-10-15T02:38:47;100357.58;;;6.1;90.58
63691;BME280;49837;57.280;27.070;2022-10-15T02:39:47;100359.86;;;6.13;90.54
63691;BME280;49837;57.280;27.070;2022-10-15T02:40:47;100360.97;;;6.13;90.41
63691;BME280;49837;57.280;27.070;2022-10-15T02:41:48;100361.03;;;6.11;90.64
63691;BME280;49837;57.280;27.070;2022-10-15T02:42:49;100360.96;;;6.11;90.7
63691;BME280;49837;57.280;27.070;2022-10-15T02:43:48;100353.77;;;6.1;90.75
63691;BME280;49837;57.280;27.070;2022-10-15T02:44:48;100356.42;;;6.11;90.56
63691;BME280;49837;57.280;27.070;2022-10-15T02:45:49;100357.49;;;6.12;90.67
63691;BME280;49837;57.280;27.070;2022-10-15T02:46:49;100358.56;;;6.12;90.66
63691;BME280;49837;57.280;27.070;2022-10-15T02:47:49;100359.34;;;6.07;90.72
63691;BME280;49837;57.280;27.070;2022-10-15T02:48:50;100361.12;;;6.04;90.67
63691;BME280;49837;57.280;27.070;2022-10-15T02:49:50;100357.28;;;6.06;91.03
63691;BME280;49837;57.280;27.070;2022-10-15T02:50:51;100350.17;;;6.05;90.9
63691;BME280;49837;57.280;27.070;2022-10-15T02:51:51;100356.31;;;6.05;90.89
63691;BME280;49837;57.280;27.070;2022-10-15T02:52:51;100354.06;;;6.05;90.98
63691;BME280;49837;57.280;27.070;2022-10-15T02:53:52;100351.27;;;6.02;91.07
63691;BME280;49837;57.280;27.070;2022-10-15T02:54:52;100352.34;;;6.03;91.03
63691;BME280;49837;57.280;27.070;2022-10-15T02:55:52;100351.73;;;6.07;91.13
63691;BME280;49837;57.280;27.070;2022-10-15T02:56:53;100352.34;;;6.02;91.11
63691;BME280;49837;57.280;27.070;2022-10-15T02:57:53;100348.78;;;5.99;91.11
63691;BME280;49837;57.280;27.070;2022-10-15T02:58:54;100344.56;;;5.99;91.16
63691;BME280;49837;57.280;27.070;2022-10-15T02:59:54;100346.55;;;5.99;91.07
63691;BME280;49837;57.280;27.070;2022-10-15T03:00:54;100347.54;;;6.0;90.88
63691;BME280;49837;57.280;27.070;2022-10-15T03:01:55;100347.12;;;6.03;91.01
63691;BME280;49837;57.280;27.070;2022-10-15T03:02:55;100342.9;;;6.02;91.16
63691;BME280;49837;57.280;27.070;2022-10-15T03:03:56;100345.64;;;6.01;91.04
63691;BME280;49837;57.280;27.070;2022-10-15T03:04:56;100344.06;;;5.98;91.17
63691;BME280;49837;57.280;27.070;2022-10-15T03:05:56;100346.33;;;5.94;91.11
63691;BME280;49837;57.280;27.070;2022-10-15T03:06:57;100342.86;;;5.94;91.33
63691;BME280;49837;57.280;27.070;2022-10-15T03:07:58;100347.91;;;5.95;91.79
63691;BME280;49837;57.280;27.070;2022-10-15T03:08:58;100348.62;;;5.97;91.78
63691;BME280;49837;57.280;27.070;2022-10-15T03:09:58;100342.94;;;5.96;91.6
63691;BME280;49837;57.280;27.070;2022-10-15T03:10:59;100340.43;;;5.96;91.72
63691;BME280;49837;57.280;27.070;2022-10-15T03:11:59;100342.59;;;6.01;91.28
63691;BME280;49837;57.280;27.070;2022-10-15T03:13:03;100345.22;;;6.02;91.18
63691;BME280;49837;57.280;27.070;2022-10-15T03:14:01;100342.91;;;5.99;91.2
63691;BME280;49837;57.280;27.070;2022-10-15T03:15:01;100342.31;;;5.99;91.21
63691;BME280;49837;57.280;27.070;2022-10-15T03:16:05;100344.24;;;6.0;91.29
63691;BME280;49837;57.280;27.070;2022-10-15T03:17:03;100339.17;;;5.98;91.36
63691;BME280;49837;57.280;27.070;2022-10-15T03:18:04;100340.05;;;5.93;91.63
63691;BME280;49837;57.280;27.070;2022-10-15T03:19:04;100342.23;;;5.88;91.76
63691;BME280;49837;57.280;27.070;2022-10-15T03:20:05;100338.47;;;5.83;92.03
63691;BME280;49837;57.280;27.070;2022-10-15T03:21:04;100340.61;;;5.86;91.95
63691;BME280;49837;57.280;27.070;2022-10-15T03:22:05;100337.62;;;5.87;91.96
63691;BME280;49837;57.280;27.070;2022-10-15T03:23:05;100337.3;;;5.85;91.98
63691;BME280;49837;57.280;27.070;2022-10-15T03:24:06;100334.67;;;5.8;91.89
63691;BME280;49837;57.280;27.070;2022-10-15T03:25:06;100335.44;;;5.78;91.51
63691;BME280;49837;57.280;27.070;2022-10-15T03:26:07;100336.34;;;5.79;91.9
63691;BME280;49837;57.280;27.070;2022-10-15T03:27:07;100334.7;;;5.8;92.26
63691;BME280;49837;57.280;27.070;2022-10-15T03:28:07;100333.06;;;5.77;92.27
63691;BME280;49837;57.280;27.070;2022-10-15T03:29:08;100332.23;;;5.75;92.16
63691;BME280;49837;57.280;27.070;2022-10-15T03:30:09;100332.42;;;5.74;92.23
63691;BME280;49837;57.280;27.070;2022-10-15T03:31:08;100330.21;;;5.7;91.98
63691;BME280;49837;57.280;27.070;2022-10-15T03:32:09;100330.44;;;5.73;92.43
63691;BME280;49837;57.280;27.070;2022-10-15T03:33:09;100327.94;;;5.75;92.36
63691;BME280;49837;57.280;27.070;2022-10-15T03:34:10;100330.42;;;5.76;92.26
63691;BME280;49837;57.280;27.070;2022-10-15T03:35:10;100331.38;;;5.8;92.3
63691;BME280;49837;57.280;27.070;2022-10-15T03:36:10;100329.48;;;5.8;92.15
63691;BME280;49837;57.280;27.070;2022-10-15T03:37:11;100333.53;;;5.8;92.14
63691;BME280;49837;57.280;27.070;2022-10-15T03:38:11;100334.12;;;5.76;92.1
63691;BME280;49837;57.280;27.070;2022-10-15T03:39:12;100331.69;;;5.72;91.99
63691;BME280;49837;57.280;27.070;2022-10-15T03:40:12;100333.44;;;5.72;92.26
63691;BME280;49837;57.280;27.070;2022-10-15T03:41:12;100330.64;;;5.69;92.39
63691;BME280;49837;57.280;27.070;2022-10-15T03:42:13;100332.99;;;5.64;92.32
63691;BME280;49837;57.280;27.070;2022-10-15T03:43:13;100333.48;;;5.64;92.55
63691;BME280;49837;57.280;27.070;2022-10-15T03:44:14;100333.82;;;5.64;92.55
63691;BME280;49837;57.280;27.070;2022-10-15T03:45:14;100331.83;;;5.64;92.58
63691;BME280;49837;57.280;27.070;2022-10-15T03:46:14;100332.0;;;5.64;92.5
63691;BME280;49837;57.280;27.070;2022-10-15T03:47:15;100331.31;;;5.65;92.38
63691;BME280;49837;57.280;27.070;2022-10-15T03:48:15;100324.84;;;5.66;92.53
63691;BME280;49837;57.280;27.070;2022-10-15T03:49:15;100329.08;;;5.64;92.57
63691;BME280;49837;57.280;27.070;2022-10-15T03:50:16;100326.22;;;5.59;92.45
63691;BME280;49837;57.280;27.070;2022-10-15T03:51:16;100329.97;;;5.58;92.23
63691;BME280;49837;57.280;27.070;2022-10-15T03:52:20;100324.84;;;5.57;92.61
63691;BME280;49837;57.280;27.070;2022-10-15T03:53:21;100326.14;;;5.6;92.55
63691;BME280;49837;57.280;27.070;2022-10-15T03:54:21;100326.66;;;5.56;92.67
63691;BME280;49837;57.280;27.070;2022-10-15T03:55:21;100325.88;;;5.52;92.59
63691;BME280;49837;57.280;27.070;2022-10-15T03:56:22;100327.58;;;5.54;92.76
63691;BME280;49837;57.280;27.070;2022-10-15T03:57:22;100322.89;;;5.52;92.69
63691;BME280;49837;57.280;27.070;2022-10-15T03:58:23;100323.9;;;5.5;92.65
63691;BME280;49837;57.280;27.070;2022-10-15T03:59:23;100328.59;;;5.51;92.72
63691;BME280;49837;57.280;27.070;2022-10-15T04:00:23;100327.55;;;5.49;92.82
63691;BME280;49837;57.280;27.070;2022-10-15T04:01:24;100331.3;;;5.44;92.69
63691;BME280;49837;57.280;27.070;2022-10-15T04:02:24;100328.56;;;5.44;93.05
63691;BME280;49837;57.280;27.070;2022-10-15T04:03:24;100326.67;;;5.4;93.21
63691;BME280;49837;57.280;27.070;2022-10-15T04:04:25;100324.41;;;5.35;93.16
63691;BME280;49837;57.280;27.070;2022-10-15T04:05:25;100328.7;;;5.36;93.49
63691;BME280;49837;57.280;27.070;2022-10-15T04:06:26;100328.04;;;5.35;93.53
63691;BME280;49837;57.280;27.070;2022-10-15T04:07:26;100329.98;;;5.3;93.33
63691;BME280;49837;57.280;27.070;2022-10-15T04:08:27;100323.03;;;5.26;93.3
63691;BME280;49837;57.280;27.070;2022-10-15T04:09:27;100324.89;;;5.23;93.49
63691;BME280;49837;57.280;27.070;2022-10-15T04:10:27;100328.47;;;5.19;93.86
63691;BME280;49837;57.280;27.070;2022-10-15T04:11:28;100328.78;;;5.18;94.08
63691;BME280;49837;57.280;27.070;2022-10-15T04:12:28;100327.83;;;5.11;94.34
63691;BME280;49837;57.280;27.070;2022-10-15T04:13:28;100330.71;;;4.99;94.57
63691;BME280;49837;57.280;27.070;2022-10-15T04:14:29;100331.3;;;4.93;94.59
63691;BME280;49837;57.280;27.070;2022-10-15T04:15:29;100335.27;;;4.94;94.25
63691;BME280;49837;57.280;27.070;2022-10-15T04:16:29;100334.53;;;4.93;94.61
63691;BME280;49837;57.280;27.070;2022-10-15T04:17:30;100333.97;;;4.92;94.96
63691;BME280;49837;57.280;27.070;2022-10-15T04:18:31;100335.77;;;4.94;95.17
63691;BME280;49837;57.280;27.070;2022-10-15T04:19:31;100338.47;;;4.97;95.17
63691;BME280;49837;57.280;27.070;2022-10-15T04:20:31;100338.17;;;4.93;94.94
63691;BME280;49837;57.280;27.070;2022-10-15T04:21:31;100341.3;;;4.94;94.85
63691;BME280;49837;57.280;27.070;2022-10-15T04:22:32;100343.77;;;4.94;95.15
63691;BME280;49837;57.280;27.070;2022-10-15T04:23:32;100339.98;;;4.88;95.24
63691;BME280;49837;57.280;27.070;2022-10-15T04:24:33;100342.23;;;4.91;95.28
63691;BME280;49837;57.280;27.070;2022-10-15T04:25:34;100342.25;;;4.86;95.12
63691;BME280;49837;57.280;27.070;2022-10-15T04:26:33;100343.34;;;4.84;95.31
63691;BME280;49837;57.280;27.070;2022-10-15T04:27:34;100340.85;;;4.81;95.08
63691;BME280;49837;57.280;27.070;2022-10-15T04:28:34;100343.92;;;4.79;94.73
63691;BME280;49837;57.280;27.070;2022-10-15T04:29:34;100339.88;;;4.78;95.09
63691;BME280;49837;57.280;27.070;2022-10-15T04:30:35;100345.33;;;4.72;95.02
63691;BME280;49837;57.280;27.070;2022-10-15T04:31:35;100343.57;;;4.62;95.41
63691;BME280;49837;57.280;27.070;2022-10-15T04:32:36;100348.94;;;4.56;95.29
63691;BME280;49837;57.280;27.070;2022-10-15T04:33:36;100345.23;;;4.53;95.58
63691;BME280;49837;57.280;27.070;2022-10-15T04:34:36;100346.47;;;4.5;95.69
63691;BME280;49837;57.280;27.070;2022-10-15T04:35:37;100348.97;;;4.49;95.55
63691;BME280;49837;57.280;27.070;2022-10-15T04:36:37;100346.07;;;4.48;95.96
63691;BME280;49837;57.280;27.070;2022-10-15T04:37:37;100345.16;;;4.43;96.38
63691;BME280;49837;57.280;27.070;2022-10-15T04:38:39;100342.2;;;4.43;96.15
63691;BME280;49837;57.280;27.070;2022-10-15T04:39:39;100347.15;;;4.38;96.05
63691;BME280;49837;57.280;27.070;2022-10-15T04:40:39;100348.41;;;4.37;96.32
63691;BME280;49837;57.280;27.070;2022-10-15T04:41:39;100348.8;;;4.31;96.5
63691;BME280;49837;57.280;27.070;2022-10-15T04:42:39;100344.86;;;4.29;96.58
63691;BME280;49837;57.280;27.070;2022-10-15T04:43:40;100347.19;;;4.27;96.47
63691;BME280;49837;57.280;27.070;2022-10-15T04:44:40;100346.53;;;4.23;96.6
63691;BME280;49837;57.280;27.070;2022-10-15T04:45:40;100343.21;;;4.12;96.55
63691;BME280;49837;57.280;27.070;2022-10-15T04:46:41;100347.53;;;4.07;96.79
63691;BME280;49837;57.280;27.070;2022-10-15T04:47:42;100349.0;;;4.07;97.01
63691;BME280;49837;57.280;27.070;2022-10-15T04:48:42;100345.95;;;4.06;96.73
63691;BME280;49837;57.280;27.070;2022-10-15T04:49:42;100345.3;;;4.02;97.0
63691;BME280;49837;57.280;27.070;2022-10-15T04:50:42;100343.64;;;3.98;96.93
63691;BME280;49837;57.280;27.070;2022-10-15T04:51:43;100342.23;;;3.94;96.88
63691;BME280;49837;57.280;27.070;2022-10-15T04:52:43;100343.38;;;3.95;96.86
63691;BME280;49837;57.280;27.070;2022-10-15T04:53:44;100343.32;;;3.91;97.31
63691;BME280;49837;57.280;27.070;2022-10-15T04:54:44;100344.62;;;3.84;97.36
63691;BME280;49837;57.280;27.070;2022-10-15T04:55:45;100341.17;;;3.84;97.18
63691;BME280;49837;57.280;27.070;2022-10-15T04:56:45;100343.63;;;3.87;97.5
63691;BME280;49837;57.280;27.070;2022-10-15T04:57:45;100342.91;;;3.84;97.59
63691;BME280;49837;57.280;27.070;2022-10-15T04:58:46;100341.8;;;3.79;97.66
63691;BME280;49837;57.280;27.070;2022-10-15T04:59:46;100342.72;;;3.74;97.86
63691;BME280;49837;57.280;27.070;2022-10-15T05:00:46;100342.81;;;3.71;97.93
63691;BME280;49837;57.280;27.070;2022-10-15T05:01:47;100343.87;;;3.73;98.11
63691;BME280;49837;57.280;27.070;2022-10-15T05:02:47;100343.14;;;3.71;97.9
63691;BME280;49837;57.280;27.070;2022-10-15T05:03:48;100341.83;;;3.7;98.27
63691;BME280;49837;57.280;27.070;2022-10-15T05:04:48;100339.33;;;3.67;98.57
63691;BME280;49837;57.280;27.070;2022-10-15T05:05:48;100337.85;;;3.62;98.64
63691;BME280;49837;57.280;27.070;2022-10-15T05:06:49;100337.92;;;3.61;98.65
63691;BME280;49837;57.280;27.070;2022-10-15T05:07:49;100337.94;;;3.62;98.61
63691;BME280;49837;57.280;27.070;2022-10-15T05:08:50;100342.62;;;3.63;98.7
63691;BME280;49837;57.280;27.070;2022-10-15T05:09:50;100340.25;;;3.63;98.95
63691;BME280;49837;57.280;27.070;2022-10-15T05:10:50;100340.72;;;3.58;98.95
63691;BME280;49837;57.280;27.070;2022-10-15T05:11:51;100339.91;;;3.55;98.8
63691;BME280;49837;57.280;27.070;2022-10-15T05:12:51;100337.67;;;3.51;98.69
63691;BME280;49837;57.280;27.070;2022-10-15T05:13:56;100335.02;;;3.47;98.43
63691;BME280;49837;57.280;27.070;2022-10-15T05:14:53;100337.72;;;3.39;98.18
63691;BME280;49837;57.280;27.070;2022-10-15T05:15:54;100337.8;;;3.35;98.21
63691;BME280;49837;57.280;27.070;2022-10-15T05:16:54;100338.62;;;3.31;98.32
63691;BME280;49837;57.280;27.070;2022-10-15T05:17:55;100340.91;;;3.28;98.44
63691;BME280;49837;57.280;27.070;2022-10-15T05:18:57;100335.95;;;3.21;98.44
63691;BME280;49837;57.280;27.070;2022-10-15T05:19:55;100335.1;;;3.14;98.45
63691;BME280;49837;57.280;27.070;2022-10-15T05:21:00;100333.94;;;3.1;98.51
63691;BME280;49837;57.280;27.070;2022-10-15T05:21:57;100337.38;;;3.1;98.68
63691;BME280;49837;57.280;27.070;2022-10-15T05:22:58;100333.52;;;3.1;98.48
63691;BME280;49837;57.280;27.070;2022-10-15T05:23:58;100336.31;;;3.1;98.23
63691;BME280;49837;57.280;27.070;2022-10-15T05:24:58;100333.62;;;3.19;98.55
63691;BME280;49837;57.280;27.070;2022-10-15T05:26:04;100337.42;;;3.22;98.21
63691;BME280;49837;57.280;27.070;2022-10-15T05:27:02;100337.77;;;3.23;98.06
63691;BME280;49837;57.280;27.070;2022-10-15T05:28:03;100336.35;;;3.16;98.17
63691;BME280;49837;57.280;27.070;2022-10-15T05:29:03;100331.21;;;3.11;98.33
63691;BME280;49837;57.280;27.070;2022-10-15T05:30:04;100335.73;;;3.1;98.4
63691;BME280;49837;57.280;27.070;2022-10-15T05:31:08;100335.41;;;3.04;98.47
63691;BME280;49837;57.280;27.070;2022-10-15T05:32:08;100335.55;;;3.04;98.42
63691;BME280;49837;57.280;27.070;2022-10-15T05:33:09;100334.09;;;3.05;98.45
63691;BME280;49837;57.280;27.070;2022-10-15T05:34:12;100335.41;;;3.07;98.41
63691;BME280;49837;57.280;27.070;2022-10-15T05:35:10;100338.3;;;3.1;98.41
63691;BME280;49837;57.280;27.070;2022-10-15T05:36:15;100338.38;;;3.04;98.49
63691;BME280;49837;57.280;27.070;2022-10-15T05:37:13;100336.53;;;3.03;98.47
63691;BME280;49837;57.280;27.070;2022-10-15T05:38:13;100335.75;;;3.07;98.34
63691;BME280;49837;57.280;27.070;2022-10-15T05:39:13;100334.58;;;3.03;98.36
63691;BME280;49837;57.280;27.070;2022-10-15T05:40:14;100341.06;;;3.03;98.38
63691;BME280;49837;57.280;27.070;2022-10-15T05:41:17;100340.14;;;3.14;98.54
63691;BME280;49837;57.280;27.070;2022-10-15T05:42:17;100340.14;;;3.16;98.49
63691;BME280;49837;57.280;27.070;2022-10-15T05:43:18;100336.58;;;3.13;98.14
63691;BME280;49837;57.280;27.070;2022-10-15T05:44:18;100340.8;;;3.17;97.9
63691;BME280;49837;57.280;27.070;2022-10-15T05:45:18;100337.36;;;3.26;97.74
63691;BME280;49837;57.280;27.070;2022-10-15T05:46:19;100338.52;;;3.32;97.71
63691;BME280;49837;57.280;27.070;2022-10-15T05:47:19;100333.58;;;3.29;97.43
63691;BME280;49837;57.280;27.070;2022-10-15T05:48:20;100333.83;;;3.32;97.35
63691;BME280;49837;57.280;27.070;2022-10-15T05:49:20;100338.45;;;3.26;97.11
63691;BME280;49837;57.280;27.070;2022-10-15T05:50:21;100340.39;;;3.22;97.06
63691;BME280;49837;57.280;27.070;2022-10-15T05:51:21;100339.23;;;3.22;97.08
63691;BME280;49837;57.280;27.070;2022-10-15T05:52:21;100340.75;;;3.26;97.02
63691;BME280;49837;57.280;27.070;2022-10-15T05:53:21;100341.34;;;3.38;97.15
63691;BME280;49837;57.280;27.070;2022-10-15T05:54:22;100341.36;;;3.44;97.07
63691;BME280;49837;57.280;27.070;2022-10-15T05:55:22;100343.34;;;3.46;96.68
63691;BME280;49837;57.280;27.070;2022-10-15T05:56:23;100340.06;;;3.51;96.85
63691;BME280;49837;57.280;27.070;2022-10-15T05:57:23;100342.04;;;3.51;96.64
63691;BME280;49837;57.280;27.070;2022-10-15T05:58:27;100339.58;;;3.62;96.58
63691;BME280;49837;57.280;27.070;2022-10-15T05:59:25;100338.43;;;3.78;96.77
63691;BME280;49837;57.280;27.070;2022-10-15T06:00:26;100342.89;;;3.79;96.56
63691;BME280;49837;57.280;27.070;2022-10-15T06:01:26;100343.9;;;3.82;96.48